sensor_id;sensor_type;location;lat;lon;timestamp;P1;durP1;ratioP1;P2;durP2;ratioP2
3355;SDS011;1691;52.486;13.374;2024-03-22T00:01:44;15.47;;;13.27;;
3355;SDS011;1691;52.486;13.374;2024-03-22T00:04:12;19.93;;;13.57;;
3355;SDS011;1691;52.486;13.374;2024-03-22T00:06:38;14.13;;;11.27;;
3355;SDS011;1691;52.486;13.374;2024-03-22T00:09:07;14.67;;;11.40;;
3355;SDS011;1691;52.486;13.374;2024-03-22T00:11:33;13.23;;;11.80;;
3355;SDS011;1691;52.486;13.374;2024-03-22T00:13:59;14.67;;;12.13;;
3355;SDS011;1691;52.486;13.374;2024-03-22T00:16:25;13.27;;;11.80;;
3355;SDS011;1691;52.486;13.374;2024-03-22T00:18:51;12.03;;;10.83;;
3355;SDS011;1691;52.486;13.374;2024-03-22T00:21:17;12.23;;;11.00;;
3355;SDS011;1691;52.486;13.374;2024-03-22T00:23:44;14.03;;;12.07;;
3355;SDS011;1691;52.486;13.374;2024-03-22T00:26:11;13.73;;;12.20;;
3355;SDS011;1691;52.486;13.374;2024-03-22T00:28:37;12.00;;;10.80;;
3355;SDS011;1691;52.486;13.374;2024-03-22T00:31:03;13.20;;;11.87;;
3355;SDS011;1691;52.486;13.374;2024-03-22T00:33:29;11.70;;;10.60;;
3355;SDS011;1691;52.486;13.374;2024-03-22T00:35:55;15.50;;;12.07;;
3355;SDS011;1691;52.486;13.374;2024-03-22T00:38:21;17.33;;;12.20;;
3355;SDS011;1691;52.486;13.374;2024-03-22T00:40:47;12.40;;;11.20;;
3355;SDS011;1691;52.486;13.374;2024-03-22T00:43:13;13.70;;;11.63;;
3355;SDS011;1691;52.486;13.374;2024-03-22T00:45:39;19.13;;;12.13;;
3355;SDS011;1691;52.486;13.374;2024-03-22T00:48:05;19.60;;;11.93;;
3355;SDS011;1691;52.486;13.374;2024-03-22T00:50:31;14.30;;;11.97;;
3355;SDS011;1691;52.486;13.374;2024-03-22T00:52:57;14.80;;;11.83;;
3355;SDS011;1691;52.486;13.374;2024-03-22T00:55:23;14.63;;;12.50;;
3355;SDS011;1691;52.486;13.374;2024-03-22T00:57:50;15.13;;;12.30;;
3355;SDS011;1691;52.486;13.374;2024-03-22T01:00:16;16.17;;;12.30;;
3355;SDS011;1691;52.486;13.374;2024-03-22T01:02:43;13.43;;;12.00;;
3355;SDS011;1691;52.486;13.374;2024-03-22T01:05:09;13.53;;;12.13;;
3355;SDS011;1691;52.486;13.374;2024-03-22T01:07:36;17.00;;;12.63;;
3355;SDS011;1691;52.486;13.374;2024-03-22T01:10:03;14.37;;;12.17;;
3355;SDS011;1691;52.486;13.374;2024-03-22T01:12:30;15.70;;;12.10;;
3355;SDS011;1691;52.486;13.374;2024-03-22T01:14:56;15.03;;;12.60;;
3355;SDS011;1691;52.486;13.374;2024-03-22T01:17:23;14.80;;;12.20;;
3355;SDS011;1691;52.486;13.374;2024-03-22T01:19:49;15.30;;;12.43;;
3355;SDS011;1691;52.486;13.374;2024-03-22T01:22:17;16.90;;;13.43;;
3355;SDS011;1691;52.486;13.374;2024-03-22T01:24:43;17.10;;;13.43;;
3355;SDS011;1691;52.486;13.374;2024-03-22T01:27:10;16.27;;;13.57;;
3355;SDS011;1691;52.486;13.374;2024-03-22T01:29:37;18.90;;;13.70;;
3355;SDS011;1691;52.486;13.374;2024-03-22T01:32:03;18.90;;;14.20;;
3355;SDS011;1691;52.486;13.374;2024-03-22T01:34:29;19.40;;;13.73;;
3355;SDS011;1691;52.486;13.374;2024-03-22T01:36:55;19.30;;;14.10;;
3355;SDS011;1691;52.486;13.374;2024-03-22T01:39:21;16.90;;;13.83;;
3355;SDS011;1691;52.486;13.374;2024-03-22T01:41:48;15.23;;;13.20;;
3355;SDS011;1691;52.486;13.374;2024-03-22T01:44:15;18.40;;;14.00;;
3355;SDS011;1691;52.486;13.374;2024-03-22T01:46:41;18.23;;;13.27;;
3355;SDS011;1691;52.486;13.374;2024-03-22T01:49:11;21.60;;;14.07;;
3355;SDS011;1691;52.486;13.374;2024-03-22T01:51:39;18.20;;;13.40;;
3355;SDS011;1691;52.486;13.374;2024-03-22T01:54:06;13.70;;;11.70;;
3355;SDS011;1691;52.486;13.374;2024-03-22T01:56:38;21.17;;;14.67;;
3355;SDS011;1691;52.486;13.374;2024-03-22T01:59:05;19.70;;;14.40;;
3355;SDS011;1691;52.486;13.374;2024-03-22T02:01:32;21.53;;;13.83;;
3355;SDS011;1691;52.486;13.374;2024-03-22T02:04:00;18.67;;;13.83;;
3355;SDS011;1691;52.486;13.374;2024-03-22T02:06:26;21.43;;;15.10;;
3355;SDS011;1691;52.486;13.374;2024-03-22T02:08:52;16.63;;;13.30;;
3355;SDS011;1691;52.486;13.374;2024-03-22T02:11:19;20.57;;;14.40;;
3355;SDS011;1691;52.486;13.374;2024-03-22T02:13:45;18.90;;;14.10;;
3355;SDS011;1691;52.486;13.374;2024-03-22T02:16:12;22.50;;;13.67;;
3355;SDS011;1691;52.486;13.374;2024-03-22T02:18:38;16.40;;;13.00;;
3355;SDS011;1691;52.486;13.374;2024-03-22T02:21:04;20.23;;;13.63;;
3355;SDS011;1691;52.486;13.374;2024-03-22T02:23:33;18.40;;;13.30;;
3355;SDS011;1691;52.486;13.374;2024-03-22T02:26:00;17.57;;;13.23;;
3355;SDS011;1691;52.486;13.374;2024-03-22T02:28:28;21.50;;;12.77;;
3355;SDS011;1691;52.486;13.374;2024-03-22T02:30:54;20.37;;;13.43;;
3355;SDS011;1691;52.486;13.374;2024-03-22T02:33:20;18.53;;;13.10;;
3355;SDS011;1691;52.486;13.374;2024-03-22T02:35:46;18.77;;;13.63;;
3355;SDS011;1691;52.486;13.374;2024-03-22T02:38:13;20.03;;;13.00;;
3355;SDS011;1691;52.486;13.374;2024-03-22T02:40:39;18.70;;;14.07;;
3355;SDS011;1691;52.486;13.374;2024-03-22T02:43:05;19.03;;;13.13;;
3355;SDS011;1691;52.486;13.374;2024-03-22T02:45:32;17.00;;;12.87;;
3355;SDS011;1691;52.486;13.374;2024-03-22T02:47:58;22.17;;;14.80;;
3355;SDS011;1691;52.486;13.374;2024-03-22T02:50:24;21.97;;;14.03;;
3355;SDS011;1691;52.486;13.374;2024-03-22T02:52:50;26.47;;;12.77;;
3355;SDS011;1691;52.486;13.374;2024-03-22T02:55:16;19.70;;;14.17;;
3355;SDS011;1691;52.486;13.374;2024-03-22T02:57:42;17.00;;;13.60;;
3355;SDS011;1691;52.486;13.374;2024-03-22T03:00:08;19.43;;;12.97;;
3355;SDS011;1691;52.486;13.374;2024-03-22T03:02:35;17.57;;;11.33;;
3355;SDS011;1691;52.486;13.374;2024-03-22T03:05:01;14.20;;;12.53;;
3355;SDS011;1691;52.486;13.374;2024-03-22T03:07:27;22.13;;;14.10;;
3355;SDS011;1691;52.486;13.374;2024-03-22T03:09:53;20.70;;;14.47;;
3355;SDS011;1691;52.486;13.374;2024-03-22T03:12:19;18.53;;;13.10;;
3355;SDS011;1691;52.486;13.374;2024-03-22T03:14:45;19.37;;;12.90;;
3355;SDS011;1691;52.486;13.374;2024-03-22T03:17:11;17.23;;;13.13;;
3355;SDS011;1691;52.486;13.374;2024-03-22T03:19:37;18.17;;;12.87;;
3355;SDS011;1691;52.486;13.374;2024-03-22T03:22:04;14.87;;;11.13;;
3355;SDS011;1691;52.486;13.374;2024-03-22T03:24:30;14.90;;;12.10;;
3355;SDS011;1691;52.486;13.374;2024-03-22T03:26:56;16.20;;;12.33;;
3355;SDS011;1691;52.486;13.374;2024-03-22T03:29:22;17.10;;;11.40;;
3355;SDS011;1691;52.486;13.374;2024-03-22T03:31:48;17.20;;;12.80;;
3355;SDS011;1691;52.486;13.374;2024-03-22T03:34:14;20.63;;;12.43;;
3355;SDS011;1691;52.486;13.374;2024-03-22T03:36:40;15.63;;;12.00;;
3355;SDS011;1691;52.486;13.374;2024-03-22T03:39:07;19.30;;;14.20;;
3355;SDS011;1691;52.486;13.374;2024-03-22T03:41:33;15.27;;;12.67;;
3355;SDS011;1691;52.486;13.374;2024-03-22T03:43:59;18.23;;;12.57;;
3355;SDS011;1691;52.486;13.374;2024-03-22T03:46:25;16.57;;;11.80;;
3355;SDS011;1691;52.486;13.374;2024-03-22T03:48:51;18.87;;;13.13;;
3355;SDS011;1691;52.486;13.374;2024-03-22T03:51:17;13.07;;;10.90;;
3355;SDS011;1691;52.486;13.374;2024-03-22T03:53:43;15.70;;;11.80;;
3355;SDS011;1691;52.486;13.374;2024-03-22T03:56:09;18.23;;;11.83;;
3355;SDS011;1691;52.486;13.374;2024-03-22T03:58:35;15.13;;;10.70;;
3355;SDS011;1691;52.486;13.374;2024-03-22T04:01:07;24.00;;;13.27;;
3355;SDS011;1691;52.486;13.374;2024-03-22T04:03:34;15.00;;;11.20;;
3355;SDS011;1691;52.486;13.374;2024-03-22T04:06:00;18.63;;;11.47;;
3355;SDS011;1691;52.486;13.374;2024-03-22T04:08:26;15.00;;;11.20;;
3355;SDS011;1691;52.486;13.374;2024-03-22T04:10:53;16.20;;;12.63;;
3355;SDS011;1691;52.486;13.374;2024-03-22T04:13:23;14.43;;;10.63;;
3355;SDS011;1691;52.486;13.374;2024-03-22T04:15:50;18.17;;;12.77;;
3355;SDS011;1691;52.486;13.374;2024-03-22T04:18:17;19.03;;;11.40;;
3355;SDS011;1691;52.486;13.374;2024-03-22T04:20:43;14.93;;;11.17;;
3355;SDS011;1691;52.486;13.374;2024-03-22T04:23:22;14.27;;;11.00;;
3355;SDS011;1691;52.486;13.374;2024-03-22T04:28:25;12.80;;;11.20;;
3355;SDS011;1691;52.486;13.374;2024-03-22T04:31:01;18.77;;;11.60;;
3355;SDS011;1691;52.486;13.374;2024-03-22T04:33:35;26.37;;;11.07;;
3355;SDS011;1691;52.486;13.374;2024-03-22T04:36:02;18.23;;;11.97;;
3355;SDS011;1691;52.486;13.374;2024-03-22T04:38:29;12.97;;;10.20;;
3355;SDS011;1691;52.486;13.374;2024-03-22T04:40:56;14.70;;;11.13;;
3355;SDS011;1691;52.486;13.374;2024-03-22T04:43:23;15.20;;;11.33;;
3355;SDS011;1691;52.486;13.374;2024-03-22T04:45:49;11.47;;;9.77;;
3355;SDS011;1691;52.486;13.374;2024-03-22T04:48:20;15.43;;;10.47;;
3355;SDS011;1691;52.486;13.374;2024-03-22T04:50:48;14.63;;;10.30;;
3355;SDS011;1691;52.486;13.374;2024-03-22T04:53:18;20.73;;;10.30;;
3355;SDS011;1691;52.486;13.374;2024-03-22T04:55:47;10.90;;;9.10;;
3355;SDS011;1691;52.486;13.374;2024-03-22T04:58:17;12.70;;;10.17;;
3355;SDS011;1691;52.486;13.374;2024-03-22T05:00:44;13.40;;;10.30;;
3355;SDS011;1691;52.486;13.374;2024-03-22T05:03:12;15.80;;;11.20;;
3355;SDS011;1691;52.486;13.374;2024-03-22T05:05:38;10.10;;;9.00;;
3355;SDS011;1691;52.486;13.374;2024-03-22T05:08:05;14.33;;;11.63;;
3355;SDS011;1691;52.486;13.374;2024-03-22T05:10:32;13.30;;;9.93;;
3355;SDS011;1691;52.486;13.374;2024-03-22T05:12:59;13.97;;;9.97;;
3355;SDS011;1691;52.486;13.374;2024-03-22T05:15:25;20.20;;;11.40;;
3355;SDS011;1691;52.486;13.374;2024-03-22T05:17:52;11.23;;;9.93;;
3355;SDS011;1691;52.486;13.374;2024-03-22T05:20:19;13.33;;;10.17;;
3355;SDS011;1691;52.486;13.374;2024-03-22T05:22:46;20.00;;;11.70;;
3355;SDS011;1691;52.486;13.374;2024-03-22T05:25:13;13.40;;;10.27;;
3355;SDS011;1691;52.486;13.374;2024-03-22T05:27:40;19.10;;;11.43;;
3355;SDS011;1691;52.486;13.374;2024-03-22T05:30:10;20.87;;;11.37;;
3355;SDS011;1691;52.486;13.374;2024-03-22T05:32:38;13.80;;;10.50;;
3355;SDS011;1691;52.486;13.374;2024-03-22T05:35:05;12.30;;;11.00;;
3355;SDS011;1691;52.486;13.374;2024-03-22T05:37:32;14.87;;;10.87;;
3355;SDS011;1691;52.486;13.374;2024-03-22T05:39:59;13.17;;;10.30;;
3355;SDS011;1691;52.486;13.374;2024-03-22T05:42:26;19.20;;;11.30;;
3355;SDS011;1691;52.486;13.374;2024-03-22T05:44:52;15.30;;;11.10;;
3355;SDS011;1691;52.486;13.374;2024-03-22T05:47:18;13.10;;;10.67;;
3355;SDS011;1691;52.486;13.374;2024-03-22T05:49:46;17.03;;;11.87;;
3355;SDS011;1691;52.486;13.374;2024-03-22T05:52:12;19.70;;;12.10;;
3355;SDS011;1691;52.486;13.374;2024-03-22T05:54:38;15.80;;;11.33;;
3355;SDS011;1691;52.486;13.374;2024-03-22T05:57:04;14.23;;;10.57;;
3355;SDS011;1691;52.486;13.374;2024-03-22T05:59:30;15.97;;;11.63;;
3355;SDS011;1691;52.486;13.374;2024-03-22T06:01:57;20.60;;;12.63;;
3355;SDS011;1691;52.486;13.374;2024-03-22T06:04:23;17.13;;;12.43;;
3355;SDS011;1691;52.486;13.374;2024-03-22T06:06:49;18.90;;;12.10;;
3355;SDS011;1691;52.486;13.374;2024-03-22T06:09:15;14.53;;;11.80;;
3355;SDS011;1691;52.486;13.374;2024-03-22T06:11:52;21.53;;;13.10;;
3355;SDS011;1691;52.486;13.374;2024-03-22T06:14:18;19.37;;;13.50;;
3355;SDS011;1691;52.486;13.374;2024-03-22T06:16:44;16.97;;;12.30;;
3355;SDS011;1691;52.486;13.374;2024-03-22T06:19:10;18.97;;;13.13;;
3355;SDS011;1691;52.486;13.374;2024-03-22T06:21:36;20.80;;;12.70;;
3355;SDS011;1691;52.486;13.374;2024-03-22T06:24:02;24.00;;;12.83;;
3355;SDS011;1691;52.486;13.374;2024-03-22T06:26:29;18.27;;;12.97;;
3355;SDS011;1691;52.486;13.374;2024-03-22T06:28:55;16.37;;;11.67;;
3355;SDS011;1691;52.486;13.374;2024-03-22T06:31:21;22.23;;;15.60;;
3355;SDS011;1691;52.486;13.374;2024-03-22T06:33:47;12.90;;;10.27;;
3355;SDS011;1691;52.486;13.374;2024-03-22T06:36:13;19.13;;;11.30;;
3355;SDS011;1691;52.486;13.374;2024-03-22T06:38:39;17.00;;;11.60;;
3355;SDS011;1691;52.486;13.374;2024-03-22T06:41:05;16.33;;;10.80;;
3355;SDS011;1691;52.486;13.374;2024-03-22T06:43:31;19.43;;;12.40;;
3355;SDS011;1691;52.486;13.374;2024-03-22T06:45:58;12.70;;;10.83;;
3355;SDS011;1691;52.486;13.374;2024-03-22T06:48:24;15.53;;;11.30;;
3355;SDS011;1691;52.486;13.374;2024-03-22T06:50:50;26.30;;;12.10;;
3355;SDS011;1691;52.486;13.374;2024-03-22T06:53:16;14.10;;;11.70;;
3355;SDS011;1691;52.486;13.374;2024-03-22T06:55:42;16.37;;;11.13;;
3355;SDS011;1691;52.486;13.374;2024-03-22T06:58:08;17.70;;;11.63;;
3355;SDS011;1691;52.486;13.374;2024-03-22T07:00:34;14.87;;;12.20;;
3355;SDS011;1691;52.486;13.374;2024-03-22T07:03:03;25.10;;;12.83;;
3355;SDS011;1691;52.486;13.374;2024-03-22T07:05:30;16.27;;;12.33;;
3355;SDS011;1691;52.486;13.374;2024-03-22T07:07:56;20.97;;;13.93;;
3355;SDS011;1691;52.486;13.374;2024-03-22T07:10:23;16.63;;;13.07;;
3355;SDS011;1691;52.486;13.374;2024-03-22T07:12:55;22.93;;;13.47;;
3355;SDS011;1691;52.486;13.374;2024-03-22T07:15:25;18.07;;;13.07;;
3355;SDS011;1691;52.486;13.374;2024-03-22T07:17:51;20.90;;;14.70;;
3355;SDS011;1691;52.486;13.374;2024-03-22T07:20:17;18.67;;;14.20;;
3355;SDS011;1691;52.486;13.374;2024-03-22T07:22:44;27.40;;;15.43;;
3355;SDS011;1691;52.486;13.374;2024-03-22T07:25:11;22.53;;;14.93;;
3355;SDS011;1691;52.486;13.374;2024-03-22T07:27:37;23.60;;;15.40;;
3355;SDS011;1691;52.486;13.374;2024-03-22T07:30:03;23.87;;;15.07;;
3355;SDS011;1691;52.486;13.374;2024-03-22T07:32:30;21.77;;;14.60;;
3355;SDS011;1691;52.486;13.374;2024-03-22T07:34:57;22.80;;;14.80;;
3355;SDS011;1691;52.486;13.374;2024-03-22T07:37:23;25.93;;;15.50;;
3355;SDS011;1691;52.486;13.374;2024-03-22T07:39:49;20.07;;;14.73;;
3355;SDS011;1691;52.486;13.374;2024-03-22T07:42:16;27.33;;;16.80;;
3355;SDS011;1691;52.486;13.374;2024-03-22T07:44:42;27.33;;;18.73;;
3355;SDS011;1691;52.486;13.374;2024-03-22T07:47:08;23.97;;;15.70;;
3355;SDS011;1691;52.486;13.374;2024-03-22T07:49:34;24.27;;;15.50;;
3355;SDS011;1691;52.486;13.374;2024-03-22T07:52:02;22.47;;;16.03;;
3355;SDS011;1691;52.486;13.374;2024-03-22T07:54:28;30.10;;;16.30;;
3355;SDS011;1691;52.486;13.374;2024-03-22T07:56:54;23.07;;;16.03;;
3355;SDS011;1691;52.486;13.374;2024-03-22T07:59:19;23.30;;;17.37;;
3355;SDS011;1691;52.486;13.374;2024-03-22T08:01:45;27.47;;;16.37;;
3355;SDS011;1691;52.486;13.374;2024-03-22T08:04:12;26.10;;;14.93;;
3355;SDS011;1691;52.486;13.374;2024-03-22T08:06:38;26.27;;;16.00;;
3355;SDS011;1691;52.486;13.374;2024-03-22T08:09:04;26.97;;;17.00;;
3355;SDS011;1691;52.486;13.374;2024-03-22T08:11:30;22.00;;;15.70;;
3355;SDS011;1691;52.486;13.374;2024-03-22T08:13:56;22.80;;;17.00;;
3355;SDS011;1691;52.486;13.374;2024-03-22T08:16:27;37.23;;;16.20;;
3355;SDS011;1691;52.486;13.374;2024-03-22T08:18:54;30.03;;;16.47;;
3355;SDS011;1691;52.486;13.374;2024-03-22T08:21:21;25.63;;;16.77;;
3355;SDS011;1691;52.486;13.374;2024-03-22T08:23:49;26.23;;;15.87;;
3355;SDS011;1691;52.486;13.374;2024-03-22T08:26:18;25.00;;;16.47;;
3355;SDS011;1691;52.486;13.374;2024-03-22T08:28:45;24.80;;;15.67;;
3355;SDS011;1691;52.486;13.374;2024-03-22T08:31:12;23.27;;;15.13;;
3355;SDS011;1691;52.486;13.374;2024-03-22T08:33:39;25.83;;;15.37;;
3355;SDS011;1691;52.486;13.374;2024-03-22T08:36:05;26.13;;;15.03;;
3355;SDS011;1691;52.486;13.374;2024-03-22T08:38:31;24.67;;;16.23;;
3355;SDS011;1691;52.486;13.374;2024-03-22T08:40:58;28.70;;;16.13;;
3355;SDS011;1691;52.486;13.374;2024-03-22T08:43:25;19.23;;;15.17;;
3355;SDS011;1691;52.486;13.374;2024-03-22T08:45:53;21.67;;;15.70;;
3355;SDS011;1691;52.486;13.374;2024-03-22T08:48:19;21.20;;;15.17;;
3355;SDS011;1691;52.486;13.374;2024-03-22T08:50:45;18.70;;;14.97;;
3355;SDS011;1691;52.486;13.374;2024-03-22T08:53:11;26.40;;;14.97;;
3355;SDS011;1691;52.486;13.374;2024-03-22T08:55:37;21.43;;;15.23;;
3355;SDS011;1691;52.486;13.374;2024-03-22T08:58:03;19.17;;;14.30;;
3355;SDS011;1691;52.486;13.374;2024-03-22T09:00:30;22.37;;;14.70;;
3355;SDS011;1691;52.486;13.374;2024-03-22T09:02:56;26.33;;;15.73;;
3355;SDS011;1691;52.486;13.374;2024-03-22T09:05:22;21.90;;;16.13;;
3355;SDS011;1691;52.486;13.374;2024-03-22T09:07:48;20.50;;;14.87;;
3355;SDS011;1691;52.486;13.374;2024-03-22T09:10:15;20.83;;;14.73;;
3355;SDS011;1691;52.486;13.374;2024-03-22T09:12:41;20.20;;;14.87;;
3355;SDS011;1691;52.486;13.374;2024-03-22T09:15:07;24.30;;;16.50;;
3355;SDS011;1691;52.486;13.374;2024-03-22T09:17:34;19.83;;;14.87;;
3355;SDS011;1691;52.486;13.374;2024-03-22T09:20:00;23.20;;;15.47;;
3355;SDS011;1691;52.486;13.374;2024-03-22T09:22:26;20.47;;;14.70;;
3355;SDS011;1691;52.486;13.374;2024-03-22T09:24:52;30.67;;;19.23;;
3355;SDS011;1691;52.486;13.374;2024-03-22T09:27:18;22.50;;;16.07;;
3355;SDS011;1691;52.486;13.374;2024-03-22T09:29:44;30.80;;;15.93;;
3355;SDS011;1691;52.486;13.374;2024-03-22T09:32:10;19.40;;;15.87;;
3355;SDS011;1691;52.486;13.374;2024-03-22T09:34:36;22.90;;;14.60;;
3355;SDS011;1691;52.486;13.374;2024-03-22T09:37:02;25.20;;;15.60;;
3355;SDS011;1691;52.486;13.374;2024-03-22T09:39:28;19.20;;;15.30;;
3355;SDS011;1691;52.486;13.374;2024-03-22T09:41:56;20.80;;;14.77;;
3355;SDS011;1691;52.486;13.374;2024-03-22T09:44:23;22.67;;;15.47;;
3355;SDS011;1691;52.486;13.374;2024-03-22T09:46:52;19.53;;;14.70;;
3355;SDS011;1691;52.486;13.374;2024-03-22T09:49:19;20.50;;;15.93;;
3355;SDS011;1691;52.486;13.374;2024-03-22T09:51:45;27.77;;;15.40;;
3355;SDS011;1691;52.486;13.374;2024-03-22T09:54:12;23.90;;;15.43;;
3355;SDS011;1691;52.486;13.374;2024-03-22T09:56:38;21.50;;;15.50;;
3355;SDS011;1691;52.486;13.374;2024-03-22T09:59:08;21.13;;;14.27;;
3355;SDS011;1691;52.486;13.374;2024-03-22T10:01:35;20.20;;;14.70;;
3355;SDS011;1691;52.486;13.374;2024-03-22T10:04:05;18.00;;;14.70;;
3355;SDS011;1691;52.486;13.374;2024-03-22T10:06:31;20.47;;;15.17;;
3355;SDS011;1691;52.486;13.374;2024-03-22T10:08:58;20.30;;;15.40;;
3355;SDS011;1691;52.486;13.374;2024-03-22T10:11:26;23.53;;;14.67;;
3355;SDS011;1691;52.486;13.374;2024-03-22T12:56:29;19.50;;;13.97;;
3355;SDS011;1691;52.486;13.374;2024-03-22T13:40:16;26.97;;;11.17;;
3355;SDS011;1691;52.486;13.374;2024-03-22T13:42:43;16.40;;;10.17;;
3355;SDS011;1691;52.486;13.374;2024-03-22T13:45:09;16.70;;;11.03;;
3355;SDS011;1691;52.486;13.374;2024-03-22T13:47:35;40.23;;;24.33;;
3355;SDS011;1691;52.486;13.374;2024-03-22T13:50:08;29.33;;;18.30;;
3355;SDS011;1691;52.486;13.374;2024-03-22T13:52:35;12.93;;;9.43;;
3355;SDS011;1691;52.486;13.374;2024-03-22T13:55:01;14.87;;;10.10;;
3355;SDS011;1691;52.486;13.374;2024-03-22T13:57:27;14.40;;;11.47;;
3355;SDS011;1691;52.486;13.374;2024-03-22T13:59:53;20.30;;;12.20;;
3355;SDS011;1691;52.486;13.374;2024-03-22T14:02:19;19.47;;;12.90;;
3355;SDS011;1691;52.486;13.374;2024-03-22T14:04:45;22.17;;;13.50;;
3355;SDS011;1691;52.486;13.374;2024-03-22T14:07:11;22.87;;;14.70;;
3355;SDS011;1691;52.486;13.374;2024-03-22T14:09:37;22.60;;;14.10;;
3355;SDS011;1691;52.486;13.374;2024-03-22T14:12:06;25.63;;;14.20;;
3355;SDS011;1691;52.486;13.374;2024-03-22T14:14:32;21.00;;;14.17;;
3355;SDS011;1691;52.486;13.374;2024-03-22T14:16:58;21.70;;;13.70;;
3355;SDS011;1691;52.486;13.374;2024-03-22T14:19:24;26.60;;;16.23;;
3355;SDS011;1691;52.486;13.374;2024-03-22T14:21:50;23.67;;;15.80;;
3355;SDS011;1691;52.486;13.374;2024-03-22T14:24:16;27.53;;;15.00;;
3355;SDS011;1691;52.486;13.374;2024-03-22T14:26:42;16.93;;;13.10;;
3355;SDS011;1691;52.486;13.374;2024-03-22T14:29:09;25.23;;;14.60;;
3355;SDS011;1691;52.486;13.374;2024-03-22T14:31:35;26.80;;;16.50;;
3355;SDS011;1691;52.486;13.374;2024-03-22T14:34:02;31.60;;;16.20;;
3355;SDS011;1691;52.486;13.374;2024-03-22T14:36:29;18.67;;;14.27;;
3355;SDS011;1691;52.486;13.374;2024-03-22T14:38:55;28.57;;;15.63;;
3355;SDS011;1691;52.486;13.374;2024-03-22T14:41:21;36.37;;;16.50;;
3355;SDS011;1691;52.486;13.374;2024-03-22T14:43:47;23.30;;;15.23;;
3355;SDS011;1691;52.486;13.374;2024-03-22T14:46:13;23.70;;;15.40;;
3355;SDS011;1691;52.486;13.374;2024-03-22T14:48:39;21.73;;;14.37;;
3355;SDS011;1691;52.486;13.374;2024-03-22T14:51:05;21.83;;;14.70;;
3355;SDS011;1691;52.486;13.374;2024-03-22T14:53:32;22.20;;;14.87;;
3355;SDS011;1691;52.486;13.374;2024-03-22T14:55:58;25.93;;;16.30;;
3355;SDS011;1691;52.486;13.374;2024-03-22T14:58:35;34.93;;;18.77;;
3355;SDS011;1691;52.486;13.374;2024-03-22T15:01:02;34.23;;;16.70;;
3355;SDS011;1691;52.486;13.374;2024-03-22T15:03:30;22.60;;;15.80;;
3355;SDS011;1691;52.486;13.374;2024-03-22T15:05:58;27.10;;;17.03;;
3355;SDS011;1691;52.486;13.374;2024-03-22T15:08:25;31.10;;;15.43;;
3355;SDS011;1691;52.486;13.374;2024-03-22T15:10:53;29.63;;;16.93;;
3355;SDS011;1691;52.486;13.374;2024-03-22T15:13:20;28.00;;;16.97;;
3355;SDS011;1691;52.486;13.374;2024-03-22T15:15:56;27.47;;;16.90;;
3355;SDS011;1691;52.486;13.374;2024-03-22T15:18:24;26.20;;;16.87;;
3355;SDS011;1691;52.486;13.374;2024-03-22T15:20:52;27.00;;;17.03;;
3355;SDS011;1691;52.486;13.374;2024-03-22T15:23:18;24.37;;;16.20;;
3355;SDS011;1691;52.486;13.374;2024-03-22T15:25:45;27.10;;;15.10;;
3355;SDS011;1691;52.486;13.374;2024-03-22T15:28:15;26.20;;;16.57;;
3355;SDS011;1691;52.486;13.374;2024-03-22T15:30:41;33.93;;;18.00;;
3355;SDS011;1691;52.486;13.374;2024-03-22T15:33:07;28.47;;;16.87;;
3355;SDS011;1691;52.486;13.374;2024-03-22T15:35:34;29.97;;;16.73;;
3355;SDS011;1691;52.486;13.374;2024-03-22T15:38:00;29.77;;;17.03;;
3355;SDS011;1691;52.486;13.374;2024-03-22T15:40:29;25.30;;;16.37;;
3355;SDS011;1691;52.486;13.374;2024-03-22T15:42:59;31.63;;;18.20;;
3355;SDS011;1691;52.486;13.374;2024-03-22T15:45:26;29.37;;;17.00;;
3355;SDS011;1691;52.486;13.374;2024-03-22T15:47:52;27.70;;;16.93;;
3355;SDS011;1691;52.486;13.374;2024-03-22T15:50:18;33.83;;;17.67;;
3355;SDS011;1691;52.486;13.374;2024-03-22T15:52:44;30.63;;;16.00;;
3355;SDS011;1691;52.486;13.374;2024-03-22T15:55:11;34.33;;;17.73;;
3355;SDS011;1691;52.486;13.374;2024-03-22T15:57:37;31.73;;;19.60;;
3355;SDS011;1691;52.486;13.374;2024-03-22T16:00:03;27.40;;;16.60;;
3355;SDS011;1691;52.486;13.374;2024-03-22T16:02:30;26.43;;;17.50;;
3355;SDS011;1691;52.486;13.374;2024-03-22T16:04:56;24.60;;;15.60;;
3355;SDS011;1691;52.486;13.374;2024-03-22T16:07:22;25.50;;;15.70;;
3355;SDS011;1691;52.486;13.374;2024-03-22T16:09:49;25.30;;;15.80;;
3355;SDS011;1691;52.486;13.374;2024-03-22T16:12:15;25.60;;;15.17;;
3355;SDS011;1691;52.486;13.374;2024-03-22T16:14:41;26.87;;;15.70;;
3355;SDS011;1691;52.486;13.374;2024-03-22T16:17:07;23.50;;;15.07;;
3355;SDS011;1691;52.486;13.374;2024-03-22T16:19:33;31.30;;;16.93;;
3355;SDS011;1691;52.486;13.374;2024-03-22T16:22:00;19.80;;;13.70;;
3355;SDS011;1691;52.486;13.374;2024-03-22T16:24:26;22.73;;;14.07;;
3355;SDS011;1691;52.486;13.374;2024-03-22T16:26:52;22.03;;;14.40;;
3355;SDS011;1691;52.486;13.374;2024-03-22T16:29:18;21.93;;;14.70;;
3355;SDS011;1691;52.486;13.374;2024-03-22T16:31:49;23.27;;;15.30;;
3355;SDS011;1691;52.486;13.374;2024-03-22T16:34:16;24.40;;;14.47;;
3355;SDS011;1691;52.486;13.374;2024-03-22T16:36:43;25.93;;;16.07;;
3355;SDS011;1691;52.486;13.374;2024-03-22T16:39:09;29.93;;;15.40;;
3355;SDS011;1691;52.486;13.374;2024-03-22T16:41:35;27.00;;;16.10;;
3355;SDS011;1691;52.486;13.374;2024-03-22T16:44:01;26.13;;;16.90;;
3355;SDS011;1691;52.486;13.374;2024-03-22T16:46:27;29.57;;;16.13;;
3355;SDS011;1691;52.486;13.374;2024-03-22T16:48:53;36.53;;;17.20;;
3355;SDS011;1691;52.486;13.374;2024-03-22T16:51:19;23.53;;;16.40;;
3355;SDS011;1691;52.486;13.374;2024-03-22T16:53:45;23.90;;;15.40;;
3355;SDS011;1691;52.486;13.374;2024-03-22T16:56:11;29.80;;;16.87;;
3355;SDS011;1691;52.486;13.374;2024-03-22T16:58:37;32.00;;;16.73;;
3355;SDS011;1691;52.486;13.374;2024-03-22T17:01:04;26.67;;;17.43;;
3355;SDS011;1691;52.486;13.374;2024-03-22T17:03:32;27.57;;;16.17;;
3355;SDS011;1691;52.486;13.374;2024-03-22T17:06:00;29.13;;;17.10;;
3355;SDS011;1691;52.486;13.374;2024-03-22T17:08:27;26.37;;;15.67;;
3355;SDS011;1691;52.486;13.374;2024-03-22T17:10:53;25.33;;;16.60;;
3355;SDS011;1691;52.486;13.374;2024-03-22T17:13:24;33.90;;;17.03;;
3355;SDS011;1691;52.486;13.374;2024-03-22T17:15:50;21.73;;;15.30;;
3355;SDS011;1691;52.486;13.374;2024-03-22T17:18:21;29.70;;;17.10;;
3355;SDS011;1691;52.486;13.374;2024-03-22T17:20:48;28.67;;;16.63;;
3355;SDS011;1691;52.486;13.374;2024-03-22T17:23:14;29.23;;;16.43;;
3355;SDS011;1691;52.486;13.374;2024-03-22T17:25:40;29.50;;;17.53;;
3355;SDS011;1691;52.486;13.374;2024-03-22T17:28:07;29.50;;;17.20;;
3355;SDS011;1691;52.486;13.374;2024-03-22T17:30:34;24.60;;;15.80;;
3355;SDS011;1691;52.486;13.374;2024-03-22T17:33:00;25.33;;;16.60;;
3355;SDS011;1691;52.486;13.374;2024-03-22T17:35:27;25.80;;;17.53;;
3355;SDS011;1691;52.486;13.374;2024-03-22T17:37:55;34.57;;;18.13;;
3355;SDS011;1691;52.486;13.374;2024-03-22T17:40:24;29.10;;;17.70;;
3355;SDS011;1691;52.486;13.374;2024-03-22T17:42:50;26.40;;;16.77;;
3355;SDS011;1691;52.486;13.374;2024-03-22T17:45:17;39.07;;;17.93;;
3355;SDS011;1691;52.486;13.374;2024-03-22T17:47:45;28.47;;;17.23;;
3355;SDS011;1691;52.486;13.374;2024-03-22T17:50:11;36.43;;;17.47;;
3355;SDS011;1691;52.486;13.374;2024-03-22T17:52:38;37.07;;;19.20;;
3355;SDS011;1691;52.486;13.374;2024-03-22T17:55:04;36.83;;;18.73;;
3355;SDS011;1691;52.486;13.374;2024-03-22T17:57:31;26.40;;;17.23;;
3355;SDS011;1691;52.486;13.374;2024-03-22T17:59:57;27.90;;;18.00;;